Siem Pilot — LCPF — position and weather

sailwx.info

Track history (hours):
 
Tides and Currents Weather Stations Pressure Air Temp Water Temp Dewpoint Dewpoint Depression Visibility Wind Speed Wind Dir Waves Ship Positions

Siem Pilot

Last reported at 2016-Aug-27 12:05 UTC. Time now 2016-Aug-27 22:12 UTC.
Position N 34°20' E 013°27'.

Length 88 m; draft 5.9 m.

Type: Law enforcement. MMSI: 257458000.

Date/timePositionNaut miles runAvg speedWind from/ knotsBaromVisibWave heightAir tempDewpointWater temp
2016-Aug-27 12:05N 34°20' E 013°27'  
2016-Aug-24 06:03N 37°27' E 015°10'  
2016-Aug-21 15:32N 37°30' E 015°06'32 7.9
2016-Aug-21 11:33N 37°56' E 015°28'9 9.3
2016-Aug-21 10:34N 38°05' E 015°32'7 7.2
2016-Aug-21 09:34N 38°12' E 015°34'0 0.4
2016-Aug-21 08:32N 38°11' E 015°33'0 0.0
2016-Aug-21 07:32N 38°11' E 015°33'0 0.0
2016-Aug-21 06:32N 38°11' E 015°33'0 0.0
2016-Aug-21 05:33N 38°11' E 015°33'3 2.6
2016-Aug-21 04:34N 38°12' E 015°37'8 8.5
2016-Aug-21 03:33N 38°03' E 015°35'7 7.1
2016-Aug-21 02:33N 37°57' E 015°37'7 7.4
2016-Aug-21 01:33N 37°52' E 015°44'7 7.4
2016-Aug-21 00:33N 37°48' E 015°52'7 7.5
2016-Aug-20 23:33N 37°43' E 015°60'8 8.1
2016-Aug-20 22:32N 37°38' E 016°08'8 7.9
2016-Aug-20 21:30N 37°33' E 016°16'15 7.9
2016-Aug-20 19:33N 37°24' E 016°31'18 9.1
2016-Aug-20 17:33N 37°13' E 016°50'9 9.1
2016-Aug-20 16:33N 37°07' E 016°59'9 9.4
2016-Aug-20 15:33N 37°01' E 017°08'35110.6
2016-Aug-19 06:33N 34°06' E 023°22'6 0.7
2016-Aug-18 21:33N 33°60' E 023°21'1514.2
2016-Aug-18 20:28N 34°02' E 023°03'1614.5
2016-Aug-18 19:21N 34°05' E 022°43'27114.0
2016-Aug-18 00:04N 34°41' E 017°18'813.8
2016-Aug-17 23:30N 34°42' E 017°09'3314.0
2016-Aug-17 21:08N 34°44' E 016°29'1214.2
2016-Aug-17 20:17N 34°45' E 016°14'1014.3
2016-Aug-17 19:33N 34°46' E 016°01'1414.1
2016-Aug-17 18:33N 34°47' E 015°44'1414.0
2016-Aug-17 17:33N 34°48' E 015°27'1414.2
2016-Aug-17 16:33N 34°48' E 015°10'4514.5
2016-Aug-17 13:28N 34°37' E 014°17'  
Track history (hours):
 
Tides and Currents Weather Stations Pressure Air Temp Water Temp Dewpoint Dewpoint Depression Visibility Wind Speed Wind Dir Waves Ship Positions

Siem Pilot

Last reported at 2016-Aug-27 12:05 UTC. Time now 2016-Aug-27 22:12 UTC.
Position N 34°20' E 013°27'.

Length 88 m; draft 5.9 m.

Type: Law enforcement. MMSI: 257458000.

Date/timePositionNaut miles runAvg speedWind from/ knotsBaromVisibWave heightAir tempDewpointWater temp
2016-Aug-27 12:05N 34°20' E 013°27'  
2016-Aug-24 06:03N 37°27' E 015°10'  
2016-Aug-21 15:32N 37°30' E 015°06'32 7.9
2016-Aug-21 11:33N 37°56' E 015°28'9 9.3
2016-Aug-21 10:34N 38°05' E 015°32'7 7.2
2016-Aug-21 09:34N 38°12' E 015°34'0 0.4
2016-Aug-21 08:32N 38°11' E 015°33'0 0.0
2016-Aug-21 07:32N 38°11' E 015°33'0 0.0
2016-Aug-21 06:32N 38°11' E 015°33'0 0.0
2016-Aug-21 05:33N 38°11' E 015°33'3 2.6
2016-Aug-21 04:34N 38°12' E 015°37'8 8.5
2016-Aug-21 03:33N 38°03' E 015°35'7 7.1
2016-Aug-21 02:33N 37°57' E 015°37'7 7.4
2016-Aug-21 01:33N 37°52' E 015°44'7 7.4
2016-Aug-21 00:33N 37°48' E 015°52'7 7.5
2016-Aug-20 23:33N 37°43' E 015°60'8 8.1
2016-Aug-20 22:32N 37°38' E 016°08'8 7.9
2016-Aug-20 21:30N 37°33' E 016°16'15 7.9
2016-Aug-20 19:33N 37°24' E 016°31'18 9.1
2016-Aug-20 17:33N 37°13' E 016°50'9 9.1
2016-Aug-20 16:33N 37°07' E 016°59'9 9.4
2016-Aug-20 15:33N 37°01' E 017°08'35110.6
2016-Aug-19 06:33N 34°06' E 023°22'6 0.7
2016-Aug-18 21:33N 33°60' E 023°21'1514.2
2016-Aug-18 20:28N 34°02' E 023°03'1614.5
2016-Aug-18 19:21N 34°05' E 022°43'27114.0
2016-Aug-18 00:04N 34°41' E 017°18'813.8
2016-Aug-17 23:30N 34°42' E 017°09'3314.0
2016-Aug-17 21:08N 34°44' E 016°29'1214.2
2016-Aug-17 20:17N 34°45' E 016°14'1014.3
2016-Aug-17 19:33N 34°46' E 016°01'1414.1
2016-Aug-17 18:33N 34°47' E 015°44'1414.0
2016-Aug-17 17:33N 34°48' E 015°27'1414.2
2016-Aug-17 16:33N 34°48' E 015°10'4514.5
2016-Aug-17 13:28N 34°37' E 014°17'  

Dump ship's entire track history